sensor_id;sensor_type;location;lat;lon;timestamp;P1;durP1;ratioP1;P2;durP2;ratioP2
53961;SDS011;39868;53.398;6.564;2023-03-01T00:02:17;3.70;;;2.70;;
53961;SDS011;39868;53.398;6.564;2023-03-01T00:04:44;3.20;;;2.67;;
53961;SDS011;39868;53.398;6.564;2023-03-01T00:07:12;4.20;;;2.93;;
53961;SDS011;39868;53.398;6.564;2023-03-01T00:09:40;4.27;;;2.70;;
53961;SDS011;39868;53.398;6.564;2023-03-01T00:12:07;5.70;;;2.87;;
53961;SDS011;39868;53.398;6.564;2023-03-01T00:14:35;5.10;;;3.23;;
53961;SDS011;39868;53.398;6.564;2023-03-01T00:17:02;6.00;;;3.60;;
53961;SDS011;39868;53.398;6.564;2023-03-01T00:19:30;4.00;;;3.07;;
53961;SDS011;39868;53.398;6.564;2023-03-01T00:21:59;3.50;;;2.60;;
53961;SDS011;39868;53.398;6.564;2023-03-01T00:24:26;4.60;;;2.50;;
53961;SDS011;39868;53.398;6.564;2023-03-01T00:26:54;5.40;;;2.90;;
53961;SDS011;39868;53.398;6.564;2023-03-01T00:29:25;4.80;;;3.10;;
53961;SDS011;39868;53.398;6.564;2023-03-01T00:31:54;5.17;;;3.40;;
53961;SDS011;39868;53.398;6.564;2023-03-01T00:34:21;4.57;;;2.87;;
53961;SDS011;39868;53.398;6.564;2023-03-01T00:36:48;4.83;;;2.87;;
53961;SDS011;39868;53.398;6.564;2023-03-01T00:39:16;5.93;;;3.00;;
53961;SDS011;39868;53.398;6.564;2023-03-01T00:41:43;8.17;;;2.90;;
53961;SDS011;39868;53.398;6.564;2023-03-01T00:44:11;6.77;;;2.90;;
53961;SDS011;39868;53.398;6.564;2023-03-01T00:46:38;5.57;;;3.13;;
53961;SDS011;39868;53.398;6.564;2023-03-01T00:49:06;5.43;;;3.20;;
53961;SDS011;39868;53.398;6.564;2023-03-01T00:51:33;5.27;;;2.97;;
53961;SDS011;39868;53.398;6.564;2023-03-01T00:54:01;3.57;;;2.80;;
53961;SDS011;39868;53.398;6.564;2023-03-01T00:56:29;3.83;;;2.90;;
53961;SDS011;39868;53.398;6.564;2023-03-01T00:58:58;4.17;;;3.00;;
53961;SDS011;39868;53.398;6.564;2023-03-01T01:01:27;5.40;;;3.10;;
53961;SDS011;39868;53.398;6.564;2023-03-01T01:04:07;5.93;;;3.37;;
53961;SDS011;39868;53.398;6.564;2023-03-01T01:06:37;4.90;;;3.40;;
53961;SDS011;39868;53.398;6.564;2023-03-01T01:09:10;4.57;;;2.77;;
53961;SDS011;39868;53.398;6.564;2023-03-01T01:11:49;5.97;;;3.50;;
53961;SDS011;39868;53.398;6.564;2023-03-01T01:14:18;5.87;;;3.43;;
53961;SDS011;39868;53.398;6.564;2023-03-01T01:16:47;5.13;;;3.17;;
53961;SDS011;39868;53.398;6.564;2023-03-01T01:19:15;5.87;;;3.70;;
53961;SDS011;39868;53.398;6.564;2023-03-01T01:21:42;5.10;;;2.90;;
53961;SDS011;39868;53.398;6.564;2023-03-01T01:24:10;8.17;;;3.10;;
53961;SDS011;39868;53.398;6.564;2023-03-01T01:26:38;5.33;;;3.03;;
53961;SDS011;39868;53.398;6.564;2023-03-01T01:29:05;4.43;;;2.77;;
53961;SDS011;39868;53.398;6.564;2023-03-01T01:31:34;6.30;;;3.40;;
53961;SDS011;39868;53.398;6.564;2023-03-01T01:34:04;5.67;;;3.47;;
53961;SDS011;39868;53.398;6.564;2023-03-01T01:36:33;6.23;;;3.90;;
53961;SDS011;39868;53.398;6.564;2023-03-01T01:39:01;9.80;;;4.47;;
53961;SDS011;39868;53.398;6.564;2023-03-01T01:41:29;14.27;;;6.70;;
53961;SDS011;39868;53.398;6.564;2023-03-01T01:44:11;15.60;;;5.53;;
53961;SDS011;39868;53.398;6.564;2023-03-01T01:49:50;12.70;;;4.77;;
53961;SDS011;39868;53.398;6.564;2023-03-01T01:52:22;8.37;;;4.73;;
53961;SDS011;39868;53.398;6.564;2023-03-01T01:54:56;7.53;;;3.50;;
53961;SDS011;39868;53.398;6.564;2023-03-01T01:57:44;10.90;;;4.67;;
53961;SDS011;39868;53.398;6.564;2023-03-01T02:00:17;10.80;;;4.73;;
53961;SDS011;39868;53.398;6.564;2023-03-01T02:02:56;9.10;;;4.50;;
53961;SDS011;39868;53.398;6.564;2023-03-01T02:05:38;10.15;;;5.43;;
53961;SDS011;39868;53.398;6.564;2023-03-01T02:08:21;12.13;;;6.60;;
53961;SDS011;39868;53.398;6.564;2023-03-01T02:10:52;10.90;;;5.07;;
53961;SDS011;39868;53.398;6.564;2023-03-01T02:13:22;11.30;;;5.03;;
53961;SDS011;39868;53.398;6.564;2023-03-01T02:15:50;8.63;;;3.87;;
53961;SDS011;39868;53.398;6.564;2023-03-01T02:18:20;6.30;;;3.47;;
53961;SDS011;39868;53.398;6.564;2023-03-01T02:21:08;5.50;;;2.43;;
53961;SDS011;39868;53.398;6.564;2023-03-01T02:24:06;3.97;;;2.27;;
53961;SDS011;39868;53.398;6.564;2023-03-01T02:26:50;4.40;;;2.60;;
53961;SDS011;39868;53.398;6.564;2023-03-01T02:29:22;3.83;;;2.13;;
53961;SDS011;39868;53.398;6.564;2023-03-01T02:31:51;3.67;;;2.50;;
53961;SDS011;39868;53.398;6.564;2023-03-01T02:34:25;3.13;;;2.13;;
53961;SDS011;39868;53.398;6.564;2023-03-01T02:36:54;5.13;;;2.60;;
53961;SDS011;39868;53.398;6.564;2023-03-01T02:39:42;2.60;;;2.03;;
53961;SDS011;39868;53.398;6.564;2023-03-01T02:42:23;2.83;;;2.10;;
53961;SDS011;39868;53.398;6.564;2023-03-01T02:44:55;2.53;;;2.27;;
53961;SDS011;39868;53.398;6.564;2023-03-01T02:47:22;3.97;;;2.40;;
53961;SDS011;39868;53.398;6.564;2023-03-01T02:49:49;3.27;;;2.00;;
53961;SDS011;39868;53.398;6.564;2023-03-01T02:52:33;2.87;;;2.13;;
53961;SDS011;39868;53.398;6.564;2023-03-01T02:55:15;2.33;;;1.90;;
53961;SDS011;39868;53.398;6.564;2023-03-01T02:57:44;1.83;;;1.35;;
53961;SDS011;39868;53.398;6.564;2023-03-01T03:00:21;5.37;;;2.77;;
53961;SDS011;39868;53.398;6.564;2023-03-01T03:02:53;2.90;;;2.20;;
53961;SDS011;39868;53.398;6.564;2023-03-01T03:05:25;3.37;;;2.20;;
53961;SDS011;39868;53.398;6.564;2023-03-01T03:07:57;5.83;;;3.20;;
53961;SDS011;39868;53.398;6.564;2023-03-01T03:10:29;2.87;;;2.13;;
53961;SDS011;39868;53.398;6.564;2023-03-01T03:12:59;2.77;;;2.10;;
53961;SDS011;39868;53.398;6.564;2023-03-01T03:15:29;2.23;;;1.90;;
53961;SDS011;39868;53.398;6.564;2023-03-01T03:17:58;2.40;;;2.03;;
53961;SDS011;39868;53.398;6.564;2023-03-01T03:20:27;2.13;;;1.87;;
53961;SDS011;39868;53.398;6.564;2023-03-01T03:22:55;2.10;;;1.90;;
53961;SDS011;39868;53.398;6.564;2023-03-01T03:25:25;4.17;;;2.17;;
53961;SDS011;39868;53.398;6.564;2023-03-01T03:27:54;2.87;;;2.37;;
53961;SDS011;39868;53.398;6.564;2023-03-01T03:30:26;2.33;;;2.13;;
53961;SDS011;39868;53.398;6.564;2023-03-01T03:32:56;3.07;;;2.30;;
53961;SDS011;39868;53.398;6.564;2023-03-01T03:35:28;19.87;;;7.50;;
53961;SDS011;39868;53.398;6.564;2023-03-01T03:37:59;14.50;;;6.90;;
53961;SDS011;39868;53.398;6.564;2023-03-01T03:40:33;10.37;;;5.73;;
53961;SDS011;39868;53.398;6.564;2023-03-01T03:43:11;9.13;;;4.57;;
53961;SDS011;39868;53.398;6.564;2023-03-01T03:45:40;8.60;;;4.50;;
53961;SDS011;39868;53.398;6.564;2023-03-01T03:48:08;9.80;;;5.00;;
53961;SDS011;39868;53.398;6.564;2023-03-01T03:50:37;8.27;;;4.60;;
53961;SDS011;39868;53.398;6.564;2023-03-01T03:53:06;5.97;;;3.40;;
53961;SDS011;39868;53.398;6.564;2023-03-01T03:55:36;4.50;;;2.70;;
53961;SDS011;39868;53.398;6.564;2023-03-01T03:58:07;4.70;;;3.00;;
53961;SDS011;39868;53.398;6.564;2023-03-01T04:00:39;13.47;;;5.47;;
53961;SDS011;39868;53.398;6.564;2023-03-01T04:05:37;7.93;;;4.03;;
53961;SDS011;39868;53.398;6.564;2023-03-01T04:08:06;8.87;;;4.37;;
53961;SDS011;39868;53.398;6.564;2023-03-01T04:10:38;4.13;;;2.80;;
53961;SDS011;39868;53.398;6.564;2023-03-01T04:13:12;4.13;;;3.10;;
53961;SDS011;39868;53.398;6.564;2023-03-01T04:15:40;5.77;;;3.07;;
53961;SDS011;39868;53.398;6.564;2023-03-01T04:18:11;5.83;;;3.10;;
53961;SDS011;39868;53.398;6.564;2023-03-01T04:20:41;4.20;;;2.73;;
53961;SDS011;39868;53.398;6.564;2023-03-01T04:23:10;3.07;;;2.43;;
53961;SDS011;39868;53.398;6.564;2023-03-01T04:25:45;3.73;;;2.77;;
53961;SDS011;39868;53.398;6.564;2023-03-01T04:28:25;4.17;;;3.07;;
53961;SDS011;39868;53.398;6.564;2023-03-01T04:31:08;4.23;;;2.87;;
53961;SDS011;39868;53.398;6.564;2023-03-01T04:36:11;3.87;;;2.73;;
53961;SDS011;39868;53.398;6.564;2023-03-01T04:38:39;4.57;;;2.73;;
53961;SDS011;39868;53.398;6.564;2023-03-01T04:41:08;3.47;;;3.00;;
53961;SDS011;39868;53.398;6.564;2023-03-01T04:43:37;3.73;;;2.77;;
53961;SDS011;39868;53.398;6.564;2023-03-01T04:46:08;5.60;;;2.70;;
53961;SDS011;39868;53.398;6.564;2023-03-01T04:48:41;3.50;;;2.70;;
53961;SDS011;39868;53.398;6.564;2023-03-01T04:51:09;3.60;;;2.70;;
53961;SDS011;39868;53.398;6.564;2023-03-01T04:53:40;3.10;;;2.37;;
53961;SDS011;39868;53.398;6.564;2023-03-01T04:56:09;4.07;;;2.80;;
53961;SDS011;39868;53.398;6.564;2023-03-01T04:58:37;3.70;;;2.73;;
53961;SDS011;39868;53.398;6.564;2023-03-01T05:01:08;3.50;;;2.43;;
53961;SDS011;39868;53.398;6.564;2023-03-01T05:03:43;3.23;;;2.47;;
53961;SDS011;39868;53.398;6.564;2023-03-01T05:06:11;3.47;;;2.70;;
53961;SDS011;39868;53.398;6.564;2023-03-01T05:08:40;3.23;;;2.53;;
53961;SDS011;39868;53.398;6.564;2023-03-01T05:11:08;3.83;;;2.70;;
53961;SDS011;39868;53.398;6.564;2023-03-01T05:13:37;3.93;;;3.23;;
53961;SDS011;39868;53.398;6.564;2023-03-01T05:16:05;3.37;;;2.93;;
53961;SDS011;39868;53.398;6.564;2023-03-01T05:21:10;3.60;;;2.80;;
53961;SDS011;39868;53.398;6.564;2023-03-01T05:26:06;3.00;;;2.70;;
53961;SDS011;39868;53.398;6.564;2023-03-01T05:28:41;3.50;;;3.00;;
53961;SDS011;39868;53.398;6.564;2023-03-01T05:31:09;4.07;;;2.90;;
53961;SDS011;39868;53.398;6.564;2023-03-01T05:33:37;4.07;;;2.70;;
53961;SDS011;39868;53.398;6.564;2023-03-01T05:36:05;2.53;;;2.03;;
53961;SDS011;39868;53.398;6.564;2023-03-01T05:38:34;3.00;;;2.77;;
53961;SDS011;39868;53.398;6.564;2023-03-01T05:41:02;2.90;;;2.37;;
53961;SDS011;39868;53.398;6.564;2023-03-01T05:43:30;3.77;;;2.60;;
53961;SDS011;39868;53.398;6.564;2023-03-01T05:46:00;2.93;;;2.63;;
53961;SDS011;39868;53.398;6.564;2023-03-01T05:48:28;4.33;;;3.00;;
53961;SDS011;39868;53.398;6.564;2023-03-01T05:50:57;3.00;;;2.70;;
53961;SDS011;39868;53.398;6.564;2023-03-01T05:53:27;3.90;;;3.00;;
53961;SDS011;39868;53.398;6.564;2023-03-01T05:55:54;2.87;;;1.97;;
53961;SDS011;39868;53.398;6.564;2023-03-01T05:58:21;3.90;;;2.70;;
53961;SDS011;39868;53.398;6.564;2023-03-01T06:00:49;6.33;;;2.93;;
53961;SDS011;39868;53.398;6.564;2023-03-01T06:03:19;3.33;;;2.33;;
53961;SDS011;39868;53.398;6.564;2023-03-01T06:05:46;3.97;;;2.77;;
53961;SDS011;39868;53.398;6.564;2023-03-01T06:08:14;3.70;;;2.67;;
53961;SDS011;39868;53.398;6.564;2023-03-01T06:10:41;3.53;;;3.10;;
53961;SDS011;39868;53.398;6.564;2023-03-01T06:13:08;4.33;;;2.83;;
53961;SDS011;39868;53.398;6.564;2023-03-01T06:15:36;2.73;;;2.43;;
53961;SDS011;39868;53.398;6.564;2023-03-01T06:18:03;4.93;;;2.83;;
53961;SDS011;39868;53.398;6.564;2023-03-01T06:20:31;4.30;;;3.03;;
53961;SDS011;39868;53.398;6.564;2023-03-01T06:22:58;3.27;;;2.77;;
53961;SDS011;39868;53.398;6.564;2023-03-01T06:25:26;3.97;;;2.97;;
53961;SDS011;39868;53.398;6.564;2023-03-01T06:27:54;3.67;;;3.23;;
53961;SDS011;39868;53.398;6.564;2023-03-01T06:30:22;4.10;;;2.80;;
53961;SDS011;39868;53.398;6.564;2023-03-01T06:32:51;5.17;;;3.40;;
53961;SDS011;39868;53.398;6.564;2023-03-01T06:35:22;5.03;;;3.00;;
53961;SDS011;39868;53.398;6.564;2023-03-01T06:37:49;4.23;;;2.60;;
53961;SDS011;39868;53.398;6.564;2023-03-01T06:40:17;5.23;;;2.97;;
53961;SDS011;39868;53.398;6.564;2023-03-01T06:42:48;4.33;;;3.03;;
53961;SDS011;39868;53.398;6.564;2023-03-01T06:45:17;4.10;;;2.70;;
53961;SDS011;39868;53.398;6.564;2023-03-01T06:47:46;5.07;;;3.37;;
53961;SDS011;39868;53.398;6.564;2023-03-01T06:50:14;6.17;;;4.00;;
53961;SDS011;39868;53.398;6.564;2023-03-01T06:52:43;3.87;;;3.07;;
53961;SDS011;39868;53.398;6.564;2023-03-01T06:55:11;8.13;;;4.00;;
53961;SDS011;39868;53.398;6.564;2023-03-01T06:57:39;6.23;;;3.47;;
53961;SDS011;39868;53.398;6.564;2023-03-01T07:00:07;3.90;;;3.27;;
53961;SDS011;39868;53.398;6.564;2023-03-01T07:02:35;4.93;;;3.37;;
53961;SDS011;39868;53.398;6.564;2023-03-01T07:05:03;4.63;;;2.83;;
53961;SDS011;39868;53.398;6.564;2023-03-01T07:07:31;3.70;;;2.90;;
53961;SDS011;39868;53.398;6.564;2023-03-01T07:09:58;3.10;;;2.77;;
53961;SDS011;39868;53.398;6.564;2023-03-01T07:12:26;7.70;;;3.77;;
53961;SDS011;39868;53.398;6.564;2023-03-01T07:14:53;4.67;;;3.47;;
53961;SDS011;39868;53.398;6.564;2023-03-01T07:17:20;3.93;;;3.17;;
53961;SDS011;39868;53.398;6.564;2023-03-01T07:19:47;5.23;;;3.60;;
53961;SDS011;39868;53.398;6.564;2023-03-01T07:22:15;4.20;;;3.13;;
53961;SDS011;39868;53.398;6.564;2023-03-01T07:24:43;6.70;;;4.07;;
53961;SDS011;39868;53.398;6.564;2023-03-01T07:27:10;4.50;;;3.43;;
53961;SDS011;39868;53.398;6.564;2023-03-01T07:29:38;6.60;;;3.93;;
53961;SDS011;39868;53.398;6.564;2023-03-01T07:32:05;6.60;;;3.63;;
53961;SDS011;39868;53.398;6.564;2023-03-01T07:34:33;7.53;;;3.87;;
53961;SDS011;39868;53.398;6.564;2023-03-01T07:37:00;6.70;;;4.03;;
53961;SDS011;39868;53.398;6.564;2023-03-01T07:39:28;7.43;;;4.50;;
53961;SDS011;39868;53.398;6.564;2023-03-01T07:41:55;5.53;;;3.80;;
53961;SDS011;39868;53.398;6.564;2023-03-01T07:44:22;6.00;;;4.27;;
53961;SDS011;39868;53.398;6.564;2023-03-01T07:46:50;6.10;;;4.03;;
53961;SDS011;39868;53.398;6.564;2023-03-01T07:51:50;6.27;;;4.17;;
53961;SDS011;39868;53.398;6.564;2023-03-01T07:54:17;7.17;;;4.03;;
53961;SDS011;39868;53.398;6.564;2023-03-01T07:56:44;10.27;;;5.13;;
53961;SDS011;39868;53.398;6.564;2023-03-01T07:59:12;7.20;;;4.70;;
53961;SDS011;39868;53.398;6.564;2023-03-01T08:01:39;9.77;;;4.87;;
53961;SDS011;39868;53.398;6.564;2023-03-01T08:04:07;7.97;;;4.57;;
53961;SDS011;39868;53.398;6.564;2023-03-01T08:06:35;11.40;;;4.73;;
53961;SDS011;39868;53.398;6.564;2023-03-01T08:09:03;8.13;;;4.27;;
53961;SDS011;39868;53.398;6.564;2023-03-01T08:11:31;7.33;;;4.83;;
53961;SDS011;39868;53.398;6.564;2023-03-01T08:13:59;8.87;;;4.63;;
53961;SDS011;39868;53.398;6.564;2023-03-01T08:16:27;11.77;;;4.97;;
53961;SDS011;39868;53.398;6.564;2023-03-01T08:18:56;10.77;;;5.77;;
53961;SDS011;39868;53.398;6.564;2023-03-01T08:21:27;10.53;;;5.80;;
53961;SDS011;39868;53.398;6.564;2023-03-01T08:23:54;10.10;;;6.07;;
53961;SDS011;39868;53.398;6.564;2023-03-01T08:26:21;13.00;;;6.30;;
53961;SDS011;39868;53.398;6.564;2023-03-01T08:28:49;10.90;;;6.30;;
53961;SDS011;39868;53.398;6.564;2023-03-01T08:31:21;11.10;;;5.80;;
53961;SDS011;39868;53.398;6.564;2023-03-01T08:33:57;11.80;;;5.73;;
53961;SDS011;39868;53.398;6.564;2023-03-01T08:36:27;10.00;;;6.45;;
53961;SDS011;39868;53.398;6.564;2023-03-01T08:38:57;12.63;;;7.00;;
53961;SDS011;39868;53.398;6.564;2023-03-01T08:41:25;13.40;;;6.70;;
53961;SDS011;39868;53.398;6.564;2023-03-01T08:43:54;14.53;;;7.23;;
53961;SDS011;39868;53.398;6.564;2023-03-01T08:46:29;12.43;;;7.00;;
53961;SDS011;39868;53.398;6.564;2023-03-01T08:49:20;13.93;;;7.03;;
53961;SDS011;39868;53.398;6.564;2023-03-01T08:51:48;13.27;;;6.10;;
53961;SDS011;39868;53.398;6.564;2023-03-01T08:54:17;16.57;;;7.37;;
53961;SDS011;39868;53.398;6.564;2023-03-01T08:56:46;15.13;;;7.50;;
53961;SDS011;39868;53.398;6.564;2023-03-01T08:59:14;16.53;;;7.57;;
53961;SDS011;39868;53.398;6.564;2023-03-01T09:01:42;14.80;;;7.53;;
53961;SDS011;39868;53.398;6.564;2023-03-01T09:04:11;15.47;;;7.40;;
53961;SDS011;39868;53.398;6.564;2023-03-01T09:06:39;15.73;;;7.80;;
53961;SDS011;39868;53.398;6.564;2023-03-01T09:09:06;17.07;;;7.77;;
53961;SDS011;39868;53.398;6.564;2023-03-01T09:11:38;16.10;;;7.72;;
53961;SDS011;39868;53.398;6.564;2023-03-01T09:14:06;17.47;;;7.20;;
53961;SDS011;39868;53.398;6.564;2023-03-01T09:16:33;14.53;;;7.13;;
53961;SDS011;39868;53.398;6.564;2023-03-01T09:19:02;16.47;;;7.47;;
53961;SDS011;39868;53.398;6.564;2023-03-01T09:21:30;18.00;;;8.73;;
53961;SDS011;39868;53.398;6.564;2023-03-01T09:24:06;17.40;;;7.83;;
53961;SDS011;39868;53.398;6.564;2023-03-01T09:26:41;16.43;;;7.37;;
53961;SDS011;39868;53.398;6.564;2023-03-01T09:29:09;17.20;;;7.87;;
53961;SDS011;39868;53.398;6.564;2023-03-01T09:31:36;14.27;;;7.77;;
53961;SDS011;39868;53.398;6.564;2023-03-01T09:34:04;18.63;;;8.70;;
53961;SDS011;39868;53.398;6.564;2023-03-01T09:36:32;12.30;;;7.10;;
53961;SDS011;39868;53.398;6.564;2023-03-01T09:39:00;18.97;;;8.70;;
53961;SDS011;39868;53.398;6.564;2023-03-01T09:41:45;14.97;;;7.90;;
53961;SDS011;39868;53.398;6.564;2023-03-01T09:44:18;14.43;;;7.50;;
53961;SDS011;39868;53.398;6.564;2023-03-01T09:46:53;15.63;;;7.97;;
53961;SDS011;39868;53.398;6.564;2023-03-01T09:49:24;13.10;;;7.00;;
53961;SDS011;39868;53.398;6.564;2023-03-01T09:54:28;14.47;;;7.33;;
53961;SDS011;39868;53.398;6.564;2023-03-01T10:05:14;15.03;;;7.87;;
53961;SDS011;39868;53.398;6.564;2023-03-01T10:10:36;14.63;;;7.70;;
53961;SDS011;39868;53.398;6.564;2023-03-01T10:13:10;15.07;;;7.27;;
53961;SDS011;39868;53.398;6.564;2023-03-01T10:15:47;14.33;;;7.23;;
53961;SDS011;39868;53.398;6.564;2023-03-01T10:18:22;16.83;;;7.40;;
53961;SDS011;39868;53.398;6.564;2023-03-01T10:20:59;15.87;;;6.77;;
53961;SDS011;39868;53.398;6.564;2023-03-01T10:23:30;16.60;;;7.90;;
53961;SDS011;39868;53.398;6.564;2023-03-01T10:31:43;14.13;;;6.60;;
53961;SDS011;39868;53.398;6.564;2023-03-01T10:34:17;11.13;;;6.07;;
53961;SDS011;39868;53.398;6.564;2023-03-01T10:36:50;12.38;;;6.20;;
53961;SDS011;39868;53.398;6.564;2023-03-01T10:39:21;11.00;;;6.13;;
53961;SDS011;39868;53.398;6.564;2023-03-01T10:47:17;11.10;;;6.20;;
53961;SDS011;39868;53.398;6.564;2023-03-01T10:49:51;15.70;;;6.57;;
53961;SDS011;39868;53.398;6.564;2023-03-01T10:52:25;10.63;;;6.10;;
53961;SDS011;39868;53.398;6.564;2023-03-01T10:55:20;16.58;;;7.30;;
53961;SDS011;39868;53.398;6.564;2023-03-01T11:00:44;13.13;;;7.05;;
53961;SDS011;39868;53.398;6.564;2023-03-01T11:03:28;11.73;;;6.28;;
53961;SDS011;39868;53.398;6.564;2023-03-01T11:08:44;6.90;;;3.90;;
53961;SDS011;39868;53.398;6.564;2023-03-01T11:17:04;12.90;;;5.35;;
53961;SDS011;39868;53.398;6.564;2023-03-01T11:19:41;9.32;;;4.82;;
53961;SDS011;39868;53.398;6.564;2023-03-01T11:22:19;8.50;;;4.65;;
53961;SDS011;39868;53.398;6.564;2023-03-01T11:24:52;9.68;;;5.40;;
53961;SDS011;39868;53.398;6.564;2023-03-01T11:27:36;10.48;;;5.28;;
53961;SDS011;39868;53.398;6.564;2023-03-01T11:30:29;11.27;;;5.38;;
53961;SDS011;39868;53.398;6.564;2023-03-01T11:36:16;14.05;;;6.53;;
53961;SDS011;39868;53.398;6.564;2023-03-01T11:41:30;10.65;;;6.00;;
53961;SDS011;39868;53.398;6.564;2023-03-01T11:44:03;10.95;;;5.63;;
53961;SDS011;39868;53.398;6.564;2023-03-01T11:53:26;13.10;;;5.80;;
53961;SDS011;39868;53.398;6.564;2023-03-01T11:58:33;10.77;;;5.53;;
53961;SDS011;39868;53.398;6.564;2023-03-01T12:06:59;8.63;;;4.20;;
53961;SDS011;39868;53.398;6.564;2023-03-01T12:26:23;5.70;;;3.72;;
53961;SDS011;39868;53.398;6.564;2023-03-01T12:29:10;7.70;;;4.00;;
53961;SDS011;39868;53.398;6.564;2023-03-01T12:40:24;6.93;;;3.53;;
53961;SDS011;39868;53.398;6.564;2023-03-01T12:51:19;6.47;;;3.38;;
53961;SDS011;39868;53.398;6.564;2023-03-01T12:53:51;6.47;;;3.33;;
53961;SDS011;39868;53.398;6.564;2023-03-01T12:56:22;8.02;;;3.53;;
53961;SDS011;39868;53.398;6.564;2023-03-01T12:59:08;7.07;;;3.90;;
53961;SDS011;39868;53.398;6.564;2023-03-01T13:01:52;8.95;;;4.35;;
53961;SDS011;39868;53.398;6.564;2023-03-01T13:08:05;10.93;;;4.10;;
53961;SDS011;39868;53.398;6.564;2023-03-01T13:17:51;7.10;;;3.75;;
53961;SDS011;39868;53.398;6.564;2023-03-01T13:31:09;8.60;;;4.90;;
53961;SDS011;39868;53.398;6.564;2023-03-01T13:33:57;9.45;;;4.72;;
53961;SDS011;39868;53.398;6.564;2023-03-01T13:42:28;9.25;;;5.20;;
53961;SDS011;39868;53.398;6.564;2023-03-01T13:45:16;8.27;;;4.60;;
53961;SDS011;39868;53.398;6.564;2023-03-01T13:47:49;9.63;;;4.70;;
53961;SDS011;39868;53.398;6.564;2023-03-01T13:50:23;10.38;;;5.07;;
53961;SDS011;39868;53.398;6.564;2023-03-01T13:52:56;10.70;;;4.85;;
53961;SDS011;39868;53.398;6.564;2023-03-01T13:55:37;9.43;;;4.95;;
53961;SDS011;39868;53.398;6.564;2023-03-01T13:58:25;7.63;;;4.68;;
53961;SDS011;39868;53.398;6.564;2023-03-01T14:00:58;9.05;;;4.57;;
53961;SDS011;39868;53.398;6.564;2023-03-01T14:03:26;9.17;;;5.00;;
53961;SDS011;39868;53.398;6.564;2023-03-01T14:08:40;9.85;;;5.22;;
53961;SDS011;39868;53.398;6.564;2023-03-01T14:14:14;10.45;;;5.38;;
53961;SDS011;39868;53.398;6.564;2023-03-01T14:19:55;8.40;;;5.05;;
53961;SDS011;39868;53.398;6.564;2023-03-01T14:22:26;9.80;;;5.05;;
53961;SDS011;39868;53.398;6.564;2023-03-01T14:25:05;10.38;;;5.97;;
53961;SDS011;39868;53.398;6.564;2023-03-01T14:27:44;11.40;;;6.20;;
53961;SDS011;39868;53.398;6.564;2023-03-01T14:30:31;13.27;;;7.38;;
53961;SDS011;39868;53.398;6.564;2023-03-01T14:33:24;11.65;;;6.70;;
53961;SDS011;39868;53.398;6.564;2023-03-01T14:36:09;13.05;;;6.60;;
53961;SDS011;39868;53.398;6.564;2023-03-01T14:38:40;11.57;;;6.70;;
53961;SDS011;39868;53.398;6.564;2023-03-01T14:43:41;13.30;;;7.10;;
53961;SDS011;39868;53.398;6.564;2023-03-01T14:46:21;13.27;;;7.88;;
53961;SDS011;39868;53.398;6.564;2023-03-01T14:48:54;16.48;;;7.55;;
53961;SDS011;39868;53.398;6.564;2023-03-01T14:51:25;14.57;;;6.67;;
53961;SDS011;39868;53.398;6.564;2023-03-01T14:53:52;13.25;;;6.95;;
53961;SDS011;39868;53.398;6.564;2023-03-01T14:56:20;14.23;;;7.78;;
53961;SDS011;39868;53.398;6.564;2023-03-01T14:58:52;12.90;;;6.90;;
53961;SDS011;39868;53.398;6.564;2023-03-01T15:01:25;15.32;;;7.20;;
53961;SDS011;39868;53.398;6.564;2023-03-01T15:03:54;14.43;;;7.28;;
53961;SDS011;39868;53.398;6.564;2023-03-01T15:06:22;15.07;;;7.50;;
53961;SDS011;39868;53.398;6.564;2023-03-01T15:08:51;15.88;;;6.65;;
53961;SDS011;39868;53.398;6.564;2023-03-01T15:11:22;15.48;;;7.30;;
53961;SDS011;39868;53.398;6.564;2023-03-01T15:13:54;14.10;;;8.52;;
53961;SDS011;39868;53.398;6.564;2023-03-01T15:18:58;15.52;;;6.88;;
53961;SDS011;39868;53.398;6.564;2023-03-01T15:21:32;10.90;;;6.47;;
53961;SDS011;39868;53.398;6.564;2023-03-01T15:24:06;13.38;;;7.28;;
53961;SDS011;39868;53.398;6.564;2023-03-01T15:26:42;13.32;;;7.07;;
53961;SDS011;39868;53.398;6.564;2023-03-01T15:29:18;15.32;;;8.20;;
53961;SDS011;39868;53.398;6.564;2023-03-01T15:32:24;16.25;;;7.63;;
53961;SDS011;39868;53.398;6.564;2023-03-01T15:34:52;12.40;;;7.47;;
53961;SDS011;39868;53.398;6.564;2023-03-01T15:37:38;11.52;;;6.03;;
53961;SDS011;39868;53.398;6.564;2023-03-01T15:40:18;13.18;;;6.80;;
53961;SDS011;39868;53.398;6.564;2023-03-01T15:47:47;10.48;;;6.60;;
53961;SDS011;39868;53.398;6.564;2023-03-01T15:50:27;14.23;;;6.55;;
53961;SDS011;39868;53.398;6.564;2023-03-01T15:52:56;11.73;;;7.43;;
53961;SDS011;39868;53.398;6.564;2023-03-01T15:55:29;14.23;;;7.35;;
53961;SDS011;39868;53.398;6.564;2023-03-01T15:58:00;12.77;;;6.63;;
53961;SDS011;39868;53.398;6.564;2023-03-01T16:00:33;13.50;;;7.00;;
53961;SDS011;39868;53.398;6.564;2023-03-01T16:03:00;10.85;;;5.78;;
53961;SDS011;39868;53.398;6.564;2023-03-01T16:05:29;12.50;;;6.32;;
53961;SDS011;39868;53.398;6.564;2023-03-01T16:07:58;9.15;;;5.45;;
53961;SDS011;39868;53.398;6.564;2023-03-01T16:10:27;10.13;;;5.72;;
53961;SDS011;39868;53.398;6.564;2023-03-01T16:12:54;11.38;;;5.68;;
53961;SDS011;39868;53.398;6.564;2023-03-01T16:17:58;9.13;;;5.10;;
53961;SDS011;39868;53.398;6.564;2023-03-01T16:20:26;8.27;;;5.50;;
53961;SDS011;39868;53.398;6.564;2023-03-01T16:22:58;9.02;;;5.40;;
53961;SDS011;39868;53.398;6.564;2023-03-01T16:25:28;13.30;;;5.78;;
53961;SDS011;39868;53.398;6.564;2023-03-01T16:27:56;7.53;;;4.60;;
53961;SDS011;39868;53.398;6.564;2023-03-01T16:30:25;11.02;;;5.30;;
53961;SDS011;39868;53.398;6.564;2023-03-01T16:32:52;11.15;;;5.78;;
53961;SDS011;39868;53.398;6.564;2023-03-01T16:35:20;9.07;;;5.00;;
53961;SDS011;39868;53.398;6.564;2023-03-01T16:37:48;6.77;;;4.57;;
53961;SDS011;39868;53.398;6.564;2023-03-01T16:40:16;9.80;;;5.50;;
53961;SDS011;39868;53.398;6.564;2023-03-01T16:42:49;9.03;;;5.17;;
53961;SDS011;39868;53.398;6.564;2023-03-01T16:45:18;8.93;;;5.33;;
53961;SDS011;39868;53.398;6.564;2023-03-01T16:47:51;9.23;;;5.27;;
53961;SDS011;39868;53.398;6.564;2023-03-01T16:50:22;7.97;;;5.10;;
53961;SDS011;39868;53.398;6.564;2023-03-01T16:52:49;8.27;;;5.40;;
53961;SDS011;39868;53.398;6.564;2023-03-01T16:55:16;6.67;;;4.47;;
53961;SDS011;39868;53.398;6.564;2023-03-01T16:57:44;7.13;;;4.70;;
53961;SDS011;39868;53.398;6.564;2023-03-01T17:00:12;7.03;;;4.23;;
53961;SDS011;39868;53.398;6.564;2023-03-01T17:02:40;7.07;;;4.23;;
53961;SDS011;39868;53.398;6.564;2023-03-01T17:05:08;8.93;;;4.80;;
53961;SDS011;39868;53.398;6.564;2023-03-01T17:07:38;9.83;;;4.93;;
53961;SDS011;39868;53.398;6.564;2023-03-01T17:10:07;5.33;;;4.27;;
53961;SDS011;39868;53.398;6.564;2023-03-01T17:12:36;5.93;;;4.50;;
53961;SDS011;39868;53.398;6.564;2023-03-01T17:15:04;8.90;;;4.30;;
53961;SDS011;39868;53.398;6.564;2023-03-01T17:17:33;6.83;;;4.63;;
53961;SDS011;39868;53.398;6.564;2023-03-01T17:20:01;7.47;;;4.17;;
53961;SDS011;39868;53.398;6.564;2023-03-01T17:22:30;7.80;;;4.07;;
53961;SDS011;39868;53.398;6.564;2023-03-01T17:24:57;8.50;;;4.33;;
53961;SDS011;39868;53.398;6.564;2023-03-01T17:27:25;6.73;;;3.97;;
53961;SDS011;39868;53.398;6.564;2023-03-01T17:29:52;6.93;;;4.63;;
53961;SDS011;39868;53.398;6.564;2023-03-01T17:32:19;8.13;;;4.43;;
53961;SDS011;39868;53.398;6.564;2023-03-01T17:34:47;7.13;;;4.87;;
53961;SDS011;39868;53.398;6.564;2023-03-01T17:37:14;5.90;;;4.50;;
53961;SDS011;39868;53.398;6.564;2023-03-01T17:39:41;5.93;;;4.10;;
53961;SDS011;39868;53.398;6.564;2023-03-01T17:42:09;7.30;;;4.63;;
53961;SDS011;39868;53.398;6.564;2023-03-01T17:44:37;6.23;;;3.97;;